createdAt,value
2023-04-16T00:00:24.125Z,4.71
2023-04-16T00:01:24.146Z,4.71
2023-04-16T00:02:24.398Z,4.73
2023-04-16T00:03:24.577Z,4.7
2023-04-16T00:04:24.708Z,4.72
2023-04-16T00:05:24.644Z,4.75
2023-04-16T00:06:24.654Z,4.76
2023-04-16T00:07:24.696Z,4.73
2023-04-16T00:08:24.811Z,4.73
2023-04-16T00:09:24.702Z,4.75
2023-04-16T00:10:24.752Z,4.77
2023-04-16T00:11:24.747Z,4.72
2023-04-16T00:12:24.787Z,4.72
2023-04-16T00:13:24.845Z,4.74
2023-04-16T00:14:24.967Z,4.75
2023-04-16T00:15:24.828Z,4.73
2023-04-16T00:16:24.885Z,4.66
2023-04-16T00:17:25.293Z,4.69
2023-04-16T00:18:24.978Z,4.69
2023-04-16T00:19:24.870Z,4.66
2023-04-16T00:20:25.104Z,4.68
2023-04-16T00:21:24.907Z,4.69
2023-04-16T00:22:24.952Z,4.65
2023-04-16T00:23:25.000Z,4.66
2023-04-16T00:24:25.025Z,4.67
2023-04-16T00:25:24.984Z,4.7
2023-04-16T00:26:25.029Z,4.64
2023-04-16T00:27:25.033Z,4.61
2023-04-16T00:28:25.274Z,4.63
2023-04-16T00:29:25.091Z,4.61
2023-04-16T00:30:25.061Z,4.62
2023-04-16T00:31:31.953Z,4.64
2023-04-16T00:32:28.222Z,4.62
2023-04-16T00:33:28.273Z,4.64
2023-04-16T00:34:28.200Z,4.64
2023-04-16T00:35:28.249Z,4.61
2023-04-16T00:36:28.465Z,4.6
2023-04-16T00:37:28.226Z,4.61
2023-04-16T00:38:28.264Z,4.61
2023-04-16T00:39:28.386Z,4.59
2023-04-16T00:40:28.560Z,4.59
2023-04-16T00:41:28.288Z,4.57
2023-04-16T00:42:28.349Z,4.58
2023-04-16T00:43:28.373Z,4.59
2023-04-16T00:44:28.382Z,4.61
2023-04-16T00:45:28.384Z,4.6
2023-04-16T00:46:28.691Z,4.58
2023-04-16T00:47:28.773Z,4.58
2023-04-16T00:48:28.530Z,4.59
2023-04-16T00:49:29.307Z,4.53
2023-04-16T00:50:29.164Z,4.53
2023-04-16T00:51:28.528Z,4.49
2023-04-16T00:52:29.097Z,4.49
2023-04-16T00:53:28.868Z,4.48
2023-04-16T00:54:29.312Z,4.49
2023-04-16T00:55:28.903Z,4.48
2023-04-16T00:56:28.812Z,4.45
2023-04-16T00:57:28.592Z,4.47
2023-04-16T00:58:29.316Z,4.47
2023-04-16T00:59:28.981Z,4.46
2023-04-16T01:00:28.767Z,4.42
2023-04-16T01:01:28.680Z,4.44
2023-04-16T01:02:28.817Z,4.46
2023-04-16T01:04:29.348Z,4.43
2023-04-16T01:05:29.788Z,4.43
2023-04-16T01:06:28.736Z,4.44
2023-04-16T01:07:28.858Z,4.45
2023-04-16T01:08:28.730Z,4.45
2023-04-16T01:09:28.758Z,4.45
2023-04-16T01:10:28.798Z,4.42
2023-04-16T01:11:28.833Z,4.43
2023-04-16T01:12:28.930Z,4.36
2023-04-16T01:13:28.956Z,4.36
2023-04-16T01:14:28.954Z,4.38
2023-04-16T01:15:29.374Z,4.39
2023-04-16T01:16:28.928Z,4.37
2023-04-16T01:17:28.957Z,4.37
2023-04-16T01:18:28.903Z,4.33
2023-04-16T01:19:29.477Z,4.34
2023-04-16T01:20:29.615Z,4.35
2023-04-16T01:21:28.962Z,4.32
2023-04-16T01:22:28.999Z,4.31
2023-04-16T01:23:28.999Z,4.31
2023-04-16T01:24:28.976Z,4.29
2023-04-16T01:25:29.044Z,4.28
2023-04-16T01:26:29.037Z,4.28
2023-04-16T01:27:29.073Z,4.27
2023-04-16T01:28:29.049Z,4.23
2023-04-16T01:29:29.084Z,4.24
2023-04-16T01:30:29.326Z,4.27
2023-04-16T01:31:29.141Z,4.26
2023-04-16T01:32:31.454Z,4.25
2023-04-16T01:33:29.145Z,4.27
2023-04-16T01:34:29.169Z,4.29
2023-04-16T01:35:29.181Z,4.26
2023-04-16T01:36:29.195Z,4.27
2023-04-16T01:37:29.361Z,4.26
2023-04-16T01:38:29.237Z,4.24
2023-04-16T01:39:29.299Z,4.28
2023-04-16T01:40:29.293Z,4.23
2023-04-16T01:41:29.329Z,4.25
2023-04-16T01:42:29.322Z,4.25
2023-04-16T01:43:29.356Z,4.23
2023-04-16T01:44:29.376Z,4.25
2023-04-16T01:45:31.101Z,4.23
2023-04-16T01:46:31.446Z,4.22
2023-04-16T01:47:29.453Z,4.28
2023-04-16T01:48:29.463Z,4.24
2023-04-16T01:49:29.475Z,4.26
2023-04-16T01:50:29.856Z,4.23
2023-04-16T01:51:29.498Z,4.24
2023-04-16T01:52:29.579Z,4.19
2023-04-16T01:53:29.515Z,4.21
2023-04-16T01:54:29.583Z,4.22
2023-04-16T01:55:29.555Z,4.24
2023-04-16T01:56:29.546Z,4.24
2023-04-16T01:57:29.589Z,4.22
2023-04-16T01:58:30.022Z,4.26
2023-04-16T01:59:29.671Z,4.21
2023-04-16T02:00:29.656Z,4.16
2023-04-16T02:01:29.791Z,4.16
2023-04-16T02:02:30.125Z,4.15
2023-04-16T02:03:30.749Z,4.1
2023-04-16T02:04:29.791Z,4.11
2023-04-16T02:05:29.722Z,4.13
2023-04-16T02:06:29.734Z,4.12
2023-04-16T02:07:29.796Z,4.1
2023-04-16T02:08:29.747Z,4.14
2023-04-16T02:09:29.823Z,4.12
2023-04-16T02:10:29.797Z,4.07
2023-04-16T02:11:29.812Z,4.04
2023-04-16T02:12:29.851Z,4.12
2023-04-16T02:13:29.815Z,4.09
2023-04-16T02:14:30.146Z,4.07
2023-04-16T02:15:29.868Z,4.06
2023-04-16T02:16:29.899Z,4.1
2023-04-16T02:17:29.943Z,4.09
2023-04-16T02:18:30.413Z,4.1
2023-04-16T02:19:30.459Z,4.1
2023-04-16T02:20:30.573Z,4.09
2023-04-16T02:21:30.447Z,4.08
2023-04-16T02:22:30.510Z,4.11
2023-04-16T02:23:30.486Z,4.12
2023-04-16T02:24:30.578Z,4.12
2023-04-16T02:25:30.533Z,4.08
2023-04-16T02:26:30.541Z,4.09
2023-04-16T02:27:30.571Z,4.08
2023-04-16T02:28:30.589Z,4.1
2023-04-16T02:29:30.634Z,4.1
2023-04-16T02:30:30.595Z,4.12
2023-04-16T02:31:30.746Z,4.11
2023-04-16T02:32:30.650Z,4.15
2023-04-16T02:33:30.651Z,4.16
2023-04-16T02:34:30.686Z,4.14
2023-04-16T02:36:32.928Z,4.18
2023-04-16T02:37:32.934Z,4.14
2023-04-16T02:38:32.957Z,4.14
2023-04-16T02:39:33.024Z,4.19
2023-04-16T02:40:33.044Z,4.15
2023-04-16T02:41:33.023Z,4.15
2023-04-16T02:42:33.022Z,4.17
2023-04-16T02:43:33.026Z,4.14
2023-04-16T02:44:33.081Z,4.14
2023-04-16T02:45:33.091Z,4.14
2023-04-16T02:46:33.084Z,4.18
2023-04-16T02:47:33.115Z,4.17
2023-04-16T02:48:33.167Z,4.16
2023-04-16T02:49:33.193Z,4.18
2023-04-16T02:50:33.106Z,4.15
2023-04-16T02:51:33.126Z,4.14
2023-04-16T02:52:33.125Z,4.13
2023-04-16T02:53:33.160Z,4.14
2023-04-16T02:54:33.228Z,4.12
2023-04-16T02:55:33.200Z,4.14
2023-04-16T02:56:33.213Z,4.14
2023-04-16T02:57:33.407Z,4.13
2023-04-16T02:58:33.205Z,4.16
2023-04-16T02:59:33.288Z,4.18
2023-04-16T03:00:33.317Z,4.18
2023-04-16T03:01:33.335Z,4.15
2023-04-16T03:02:33.414Z,4.14
2023-04-16T03:03:33.317Z,4.12
2023-04-16T03:04:33.372Z,4.15
2023-04-16T03:05:33.430Z,4.17
2023-04-16T03:06:33.377Z,4.14
2023-04-16T03:07:33.388Z,4.14
2023-04-16T03:08:33.383Z,4.16
2023-04-16T03:09:33.397Z,4.16
2023-04-16T03:10:33.442Z,4.16
2023-04-16T03:11:33.482Z,4.14
2023-04-16T03:12:33.463Z,4.13
2023-04-16T03:13:33.472Z,4.13
2023-04-16T03:14:33.485Z,4.11
2023-04-16T03:15:33.549Z,4.15
2023-04-16T03:16:33.565Z,4.14
2023-04-16T03:17:33.507Z,4.12
2023-04-16T03:18:33.754Z,4.13
2023-04-16T03:19:33.588Z,4.14
2023-04-16T03:20:33.656Z,4.12
2023-04-16T03:21:33.601Z,4.16
2023-04-16T03:22:33.666Z,4.15
2023-04-16T03:23:33.641Z,4.16
2023-04-16T03:24:33.692Z,4.19
2023-04-16T03:25:33.696Z,4.22
2023-04-16T03:26:33.663Z,4.23
2023-04-16T03:27:33.884Z,4.19
2023-04-16T03:28:33.685Z,4.17
2023-04-16T03:29:36.077Z,4.23
2023-04-16T03:30:33.741Z,4.21
2023-04-16T03:31:33.735Z,4.2
2023-04-16T03:32:33.741Z,4.21
2023-04-16T03:33:33.739Z,4.2
2023-04-16T03:34:33.772Z,4.2
2023-04-16T03:35:33.768Z,4.17
2023-04-16T03:36:33.775Z,4.14
2023-04-16T03:37:34.083Z,4.18
2023-04-16T03:38:33.831Z,4.19
2023-04-16T03:39:33.817Z,4.17
2023-04-16T03:40:33.857Z,4.19
2023-04-16T03:41:33.865Z,4.13
2023-04-16T03:42:33.864Z,4.13
2023-04-16T03:43:33.915Z,4.1
2023-04-16T03:44:33.926Z,4.11
2023-04-16T03:45:33.897Z,4.14
2023-04-16T03:46:33.981Z,4.11
2023-04-16T03:47:34.540Z,4.1
2023-04-16T03:48:34.549Z,4.14
2023-04-16T03:49:34.545Z,4.12
2023-04-16T03:50:34.556Z,4.09
2023-04-16T03:51:34.542Z,4.12
2023-04-16T03:52:34.622Z,4.12
2023-04-16T03:53:34.601Z,4.13
2023-04-16T03:54:34.608Z,4.17
2023-04-16T03:55:35.057Z,4.12
2023-04-16T03:56:34.675Z,4.14
2023-04-16T03:57:34.616Z,4.19
2023-04-16T03:58:34.721Z,4.16
2023-04-16T03:59:34.676Z,4.18
2023-04-16T04:00:34.706Z,4.15
2023-04-16T04:01:34.724Z,4.21
2023-04-16T04:02:34.869Z,4.17
2023-04-16T04:03:34.963Z,4.19
2023-04-16T04:04:34.898Z,4.2
2023-04-16T04:05:39.030Z,4.21
2023-04-16T04:06:35.420Z,4.23
2023-04-16T04:07:35.279Z,4.23
2023-04-16T04:08:35.514Z,4.23
2023-04-16T04:09:35.311Z,4.29
2023-04-16T04:10:35.581Z,4.31
2023-04-16T04:11:35.326Z,4.3
2023-04-16T04:12:35.339Z,4.3
2023-04-16T04:13:35.416Z,4.34
2023-04-16T04:14:35.379Z,4.28
2023-04-16T04:15:35.411Z,4.34
2023-04-16T04:16:35.428Z,4.34
2023-04-16T04:17:35.405Z,4.4
2023-04-16T04:18:35.460Z,4.39
2023-04-16T04:19:35.433Z,4.4
2023-04-16T04:20:38.925Z,4.38
2023-04-16T04:21:35.457Z,4.41
2023-04-16T04:22:35.482Z,4.54
2023-04-16T04:23:35.899Z,4.49
2023-04-16T04:24:35.495Z,4.51
2023-04-16T04:25:35.626Z,4.53
2023-04-16T04:26:35.546Z,4.53
2023-04-16T04:27:35.536Z,4.56
2023-04-16T04:28:35.694Z,4.55
2023-04-16T04:29:35.652Z,4.55
2023-04-16T04:30:35.572Z,4.55
2023-04-16T04:31:35.656Z,4.56
2023-04-16T04:32:35.629Z,4.59
2023-04-16T04:33:35.620Z,4.6
2023-04-16T04:34:35.616Z,4.61
2023-04-16T04:35:35.621Z,4.57
2023-04-16T04:36:35.685Z,4.58
2023-04-16T04:37:35.705Z,4.58
2023-04-16T04:38:35.675Z,4.63
2023-04-16T04:39:35.686Z,4.63
2023-04-16T04:40:35.699Z,4.64
2023-04-16T04:41:35.724Z,4.6
2023-04-16T04:42:36.452Z,4.59
2023-04-16T04:43:35.741Z,4.6
2023-04-16T04:44:35.789Z,4.64
2023-04-16T04:45:35.792Z,4.63
2023-04-16T04:46:35.816Z,4.69
2023-04-16T04:47:35.858Z,4.72
2023-04-16T04:48:35.803Z,4.75
2023-04-16T04:49:35.957Z,4.82
2023-04-16T04:50:36.234Z,4.76
2023-04-16T04:51:35.812Z,4.76
2023-04-16T04:52:35.856Z,4.79
2023-04-16T04:53:35.875Z,4.87
2023-04-16T04:54:35.920Z,4.93
2023-04-16T04:55:36.662Z,5.01
2023-04-16T04:56:35.893Z,5.09
2023-04-16T04:57:35.905Z,5.11
2023-04-16T04:58:35.948Z,5.27
2023-04-16T04:59:36.028Z,5.28
2023-04-16T05:00:36.230Z,5.34
2023-04-16T05:01:36.098Z,5.43
2023-04-16T05:02:36.269Z,5.48
2023-04-16T05:03:36.104Z,5.56
2023-04-16T05:04:36.061Z,5.66
2023-04-16T05:05:36.041Z,5.76
2023-04-16T05:06:36.130Z,5.86
2023-04-16T05:07:36.076Z,5.99
2023-04-16T05:08:36.060Z,6.02
2023-04-16T05:09:36.168Z,5.95
2023-04-16T05:10:36.114Z,5.87
2023-04-16T05:11:36.095Z,6.01
2023-04-16T05:12:36.149Z,6.09
2023-04-16T05:13:36.162Z,6.09
2023-04-16T05:14:36.193Z,6.08
2023-04-16T05:15:36.228Z,6.13
2023-04-16T05:16:36.652Z,6.12
2023-04-16T05:17:36.215Z,6.15
2023-04-16T05:18:36.205Z,5.98
2023-04-16T05:19:36.480Z,5.95
2023-04-16T05:20:36.332Z,6.01
2023-04-16T05:21:36.265Z,6.08
2023-04-16T05:22:36.317Z,6.1
2023-04-16T05:23:36.281Z,6
2023-04-16T05:24:36.408Z,5.89
2023-04-16T05:25:36.486Z,5.85
2023-04-16T05:26:36.350Z,5.89
2023-04-16T05:27:36.764Z,5.91
2023-04-16T05:28:36.339Z,5.99
2023-04-16T05:29:36.401Z,6.01
2023-04-16T05:30:36.411Z,5.98
2023-04-16T05:31:36.464Z,5.99
2023-04-16T05:32:36.436Z,5.99
2023-04-16T05:33:36.464Z,6.03
2023-04-16T05:34:36.460Z,6
2023-04-16T05:35:36.458Z,5.92
2023-04-16T05:36:36.493Z,5.88
2023-04-16T05:37:36.484Z,5.95
2023-04-16T05:38:36.484Z,6.07
2023-04-16T05:39:36.557Z,6.08
2023-04-16T05:40:36.506Z,5.95
2023-04-16T05:41:36.567Z,5.97
2023-04-16T05:42:36.560Z,5.99
2023-04-16T05:43:36.530Z,6.03
2023-04-16T05:44:36.600Z,6.02
2023-04-16T05:45:36.597Z,5.99
2023-04-16T05:46:36.604Z,5.9
2023-04-16T05:47:36.650Z,5.93
2023-04-16T05:48:36.623Z,5.94
2023-04-16T05:49:36.730Z,5.93
2023-04-16T05:50:39.213Z,5.95
2023-04-16T05:51:36.703Z,5.98
2023-04-16T05:52:36.668Z,5.95
2023-04-16T05:53:36.686Z,5.98
2023-04-16T05:54:36.720Z,6
2023-04-16T05:55:36.751Z,6.03
2023-04-16T05:56:36.749Z,5.98
2023-04-16T05:57:36.736Z,6
2023-04-16T05:58:36.781Z,6
2023-04-16T05:59:36.753Z,6.06
2023-04-16T06:00:36.799Z,6.14
2023-04-16T06:01:36.839Z,6.03
2023-04-16T06:02:36.887Z,6.06
2023-04-16T06:03:36.930Z,6.06
2023-04-16T06:04:36.849Z,6.09
2023-04-16T06:05:36.894Z,6.14
2023-04-16T06:06:37.053Z,6.11
2023-04-16T06:07:36.874Z,6.16
2023-04-16T06:08:36.860Z,6.23
2023-04-16T06:09:36.916Z,6.1
2023-04-16T06:10:36.961Z,6.15
2023-04-16T06:11:36.962Z,6.2
2023-04-16T06:12:36.981Z,6.32
2023-04-16T06:13:37.095Z,6.29
2023-04-16T06:14:36.978Z,6.27
2023-04-16T06:15:36.994Z,6.27
2023-04-16T06:16:37.107Z,6.32
2023-04-16T06:17:37.023Z,6.35
2023-04-16T06:18:37.032Z,6.33
2023-04-16T06:19:37.032Z,6.32
2023-04-16T06:20:37.166Z,6.37
2023-04-16T06:21:37.076Z,6.35
2023-04-16T06:22:37.197Z,6.43
2023-04-16T06:23:37.093Z,6.47
2023-04-16T06:24:37.114Z,6.48
2023-04-16T06:25:37.115Z,6.37
2023-04-16T06:26:37.135Z,6.44
2023-04-16T06:27:37.242Z,6.47
2023-04-16T06:28:37.150Z,6.43
2023-04-16T06:29:41.515Z,6.63
2023-04-16T06:30:38.966Z,6.59
2023-04-16T06:31:38.013Z,6.62
2023-04-16T06:32:38.363Z,6.61
2023-04-16T06:33:38.061Z,6.6
2023-04-16T06:34:38.494Z,6.54
2023-04-16T06:35:38.066Z,6.64
2023-04-16T06:36:38.075Z,6.65
2023-04-16T06:37:38.305Z,6.7
2023-04-16T06:38:38.128Z,6.85
2023-04-16T06:39:38.119Z,6.9
2023-04-16T06:40:38.155Z,6.92
2023-04-16T06:41:38.313Z,6.96
2023-04-16T06:42:38.348Z,7.06
2023-04-16T06:43:38.238Z,7.27
2023-04-16T06:44:38.225Z,7.44
2023-04-16T06:45:38.319Z,7.38
2023-04-16T06:46:38.254Z,7.15
2023-04-16T06:47:38.270Z,7.39
2023-04-16T06:48:38.271Z,7.51
2023-04-16T06:49:38.248Z,7.46
2023-04-16T06:50:38.483Z,7.71
2023-04-16T06:51:38.474Z,7.64
2023-04-16T06:52:38.285Z,7.74
2023-04-16T06:53:38.337Z,7.92
2023-04-16T06:54:39.689Z,7.54
2023-04-16T06:55:38.549Z,7.4
2023-04-16T06:56:38.333Z,7.53
2023-04-16T06:57:38.331Z,7.41
2023-04-16T06:58:38.414Z,7.58
2023-04-16T06:59:38.399Z,7.56
2023-04-16T07:00:38.466Z,7.54
2023-04-16T07:01:38.422Z,7.26
2023-04-16T07:02:38.598Z,7.15
2023-04-16T07:03:38.850Z,7.41
2023-04-16T07:04:38.480Z,7.33
2023-04-16T07:05:38.454Z,7.36
2023-04-16T07:06:38.486Z,7.35
2023-04-16T07:07:38.494Z,7.21
2023-04-16T07:08:38.539Z,7.24
2023-04-16T07:09:38.546Z,7.44
2023-04-16T07:10:38.712Z,7.55
2023-04-16T07:11:38.600Z,7.6
2023-04-16T07:12:38.628Z,7.46
2023-04-16T07:13:38.589Z,7.46
2023-04-16T07:14:38.744Z,7.56
2023-04-16T07:15:38.613Z,7.74
2023-04-16T07:16:38.657Z,7.71
2023-04-16T07:17:38.679Z,7.55
2023-04-16T07:18:38.871Z,7.32
2023-04-16T07:19:38.663Z,7.43
2023-04-16T07:20:38.937Z,7.28
2023-04-16T07:21:38.978Z,7.31
2023-04-16T07:22:38.714Z,7.33
2023-04-16T07:23:38.717Z,7.48
2023-04-16T07:24:38.771Z,7.6
2023-04-16T07:25:38.759Z,7.62
2023-04-16T07:26:38.793Z,7.65
2023-04-16T07:27:38.758Z,7.56
2023-04-16T07:28:38.812Z,7.45
2023-04-16T07:29:38.936Z,7.51
2023-04-16T07:30:38.831Z,7.49
2023-04-16T07:31:38.911Z,7.44
2023-04-16T07:32:38.919Z,7.28
2023-04-16T07:33:38.889Z,7.2
2023-04-16T07:34:38.932Z,7.27
2023-04-16T07:35:38.905Z,7.27
2023-04-16T07:36:38.952Z,7.29
2023-04-16T07:37:38.928Z,7.25
2023-04-16T07:38:38.959Z,7.3
2023-04-16T07:39:38.987Z,7.31
2023-04-16T07:40:39.009Z,7.32
2023-04-16T07:41:39.469Z,7.36
2023-04-16T07:42:39.077Z,7.45
2023-04-16T07:43:39.007Z,7.5
2023-04-16T07:44:39.186Z,7.36
2023-04-16T07:45:40.502Z,7.34
2023-04-16T07:46:46.103Z,7.4
2023-04-16T07:47:43.850Z,7.25
2023-04-16T07:48:43.791Z,7.22
2023-04-16T07:49:43.832Z,7.32
2023-04-16T07:50:43.832Z,7.37
2023-04-16T07:51:43.880Z,7.4
2023-04-16T07:52:43.855Z,7.37
2023-04-16T07:53:44.148Z,7.28
2023-04-16T07:54:43.942Z,7.41
2023-04-16T07:55:43.933Z,7.39
2023-04-16T07:56:43.944Z,7.41
2023-04-16T07:57:43.938Z,7.52
2023-04-16T07:58:43.971Z,7.54
2023-04-16T07:59:43.997Z,7.5
2023-04-16T08:00:43.964Z,7.49
2023-04-16T08:01:44.014Z,7.41
2023-04-16T08:02:44.469Z,7.43
2023-04-16T08:03:44.349Z,7.56
2023-04-16T08:04:44.201Z,7.39
2023-04-16T08:05:44.058Z,7.4
2023-04-16T08:06:44.078Z,7.43
2023-04-16T08:07:44.126Z,7.49
2023-04-16T08:08:44.114Z,7.56
2023-04-16T08:09:47.838Z,7.69
2023-04-16T08:10:44.135Z,7.69
2023-04-16T08:11:44.688Z,7.53
2023-04-16T08:12:44.695Z,7.54
2023-04-16T08:13:44.787Z,7.75
2023-04-16T08:14:45.289Z,7.69
2023-04-16T08:15:44.748Z,7.71
2023-04-16T08:16:44.774Z,7.63
2023-04-16T08:17:45.098Z,7.46
2023-04-16T08:18:44.793Z,7.52
2023-04-16T08:19:45.154Z,7.68
2023-04-16T08:20:45.038Z,7.62
2023-04-16T08:21:45.051Z,7.54
2023-04-16T08:22:45.281Z,7.61
2023-04-16T08:23:44.980Z,7.65
2023-04-16T08:24:44.863Z,7.74
2023-04-16T08:25:45.007Z,7.61
2023-04-16T08:26:44.895Z,7.71
2023-04-16T08:27:44.914Z,7.76
2023-04-16T08:28:44.944Z,7.96
2023-04-16T08:29:44.977Z,7.86
2023-04-16T08:30:45.177Z,7.74
2023-04-16T08:31:45.016Z,7.7
2023-04-16T08:32:45.991Z,7.63
2023-04-16T08:33:45.016Z,7.74
2023-04-16T08:34:45.119Z,7.79
2023-04-16T08:35:45.058Z,7.65
2023-04-16T08:36:45.103Z,7.77
2023-04-16T08:37:45.117Z,7.81
2023-04-16T08:38:45.131Z,7.67
2023-04-16T08:39:45.147Z,7.67
2023-04-16T08:40:45.593Z,7.86
2023-04-16T08:41:45.899Z,7.88
2023-04-16T08:43:48.376Z,7.9
2023-04-16T08:44:49.261Z,7.84
2023-04-16T08:45:47.254Z,7.87
2023-04-16T08:46:46.434Z,7.74
2023-04-16T08:47:53.048Z,7.77
2023-04-16T08:48:53.299Z,7.94
2023-04-16T08:49:49.950Z,8
2023-04-16T08:50:52.297Z,7.83
2023-04-16T08:51:50.189Z,7.83
2023-04-16T08:52:53.545Z,7.78
2023-04-16T08:53:53.315Z,7.81
2023-04-16T08:54:57.249Z,7.93
2023-04-16T08:55:54.592Z,7.9
2023-04-16T08:56:54.206Z,7.83
2023-04-16T08:58:00.246Z,7.8
2023-04-16T08:58:57.148Z,7.73
2023-04-16T08:59:57.606Z,7.75
2023-04-16T09:00:56.668Z,7.87
2023-04-16T09:01:57.941Z,7.86
2023-04-16T09:02:56.663Z,7.88
2023-04-16T09:03:56.940Z,8
2023-04-16T09:04:59.709Z,7.94
2023-04-16T09:05:57.809Z,7.99
2023-04-16T09:06:58.020Z,7.91
2023-04-16T09:07:56.601Z,7.98
2023-04-16T09:08:57.345Z,8.09
2023-04-16T09:09:57.836Z,8.04
2023-04-16T09:10:56.689Z,7.97
2023-04-16T09:11:56.788Z,8
2023-04-16T09:12:57.096Z,8.21
2023-04-16T09:13:57.127Z,8.16
2023-04-16T09:14:56.961Z,8.19
2023-04-16T09:15:56.891Z,8.1
2023-04-16T09:16:57.402Z,8.1
2023-04-16T09:17:56.864Z,8.19
2023-04-16T09:18:56.801Z,8.24
2023-04-16T09:19:56.901Z,8.39
2023-04-16T09:20:57.071Z,8.25
2023-04-16T09:21:56.886Z,8.47
2023-04-16T09:22:56.916Z,8.33
2023-04-16T09:23:57.011Z,8.21
2023-04-16T09:24:56.914Z,8.41
2023-04-16T09:25:58.480Z,8.68
2023-04-16T09:26:57.147Z,8.65
2023-04-16T09:27:56.976Z,8.73
2023-04-16T09:28:56.947Z,8.53
2023-04-16T09:29:57.041Z,8.41
2023-04-16T09:34:05.761Z,8.21
2023-04-16T09:35:02.025Z,8.58
2023-04-16T09:36:02.021Z,8.26
2023-04-16T09:38:05.719Z,8.48
2023-04-16T09:39:05.692Z,8.54
2023-04-16T09:40:06.156Z,8.61
2023-04-16T09:41:06.710Z,8.59
2023-04-16T09:42:05.872Z,8.92
2023-04-16T09:44:07.288Z,9.16
2023-04-16T09:45:07.576Z,8.72
2023-04-16T09:46:10.906Z,8.66
2023-04-16T09:47:08.322Z,9.14
2023-04-16T09:48:07.333Z,8.78
2023-04-16T09:49:16.799Z,8.78
2023-04-16T09:50:10.580Z,8.86
2023-04-16T09:51:08.677Z,8.98
2023-04-16T09:52:15.514Z,9.14
2023-04-16T09:53:11.721Z,9.6
2023-04-16T09:54:11.988Z,9.12
2023-04-16T09:55:11.976Z,9.11
2023-04-16T09:56:11.904Z,9.09
2023-04-16T09:57:11.848Z,9.11
2023-04-16T09:58:12.325Z,8.95
2023-04-16T09:59:21.297Z,9.06
2023-04-16T10:00:13.158Z,9.08
2023-04-16T10:01:12.991Z,9.16
2023-04-16T10:02:15.514Z,9.01
2023-04-16T10:03:12.665Z,9.25
2023-04-16T10:04:12.675Z,8.89
2023-04-16T10:05:14.433Z,8.67
2023-04-16T10:06:16.358Z,8.68
2023-04-16T10:07:12.795Z,8.93
2023-04-16T10:08:13.242Z,9.06
2023-04-16T10:09:12.911Z,8.77
2023-04-16T10:10:12.799Z,9.04
2023-04-16T10:11:12.760Z,9.21
2023-04-16T10:12:12.711Z,9.08
2023-04-16T10:13:12.898Z,8.99
2023-04-16T10:14:12.720Z,8.9
2023-04-16T10:15:12.783Z,9
2023-04-16T10:16:16.032Z,8.89
2023-04-16T10:17:13.171Z,9.35
2023-04-16T10:18:14.199Z,9.08
2023-04-16T10:19:13.226Z,9.21
2023-04-16T10:20:14.224Z,9.1
2023-04-16T10:21:13.100Z,9.03
2023-04-16T10:22:12.949Z,9.19
2023-04-16T10:23:12.935Z,9.41
2023-04-16T10:24:13.303Z,9.52
2023-04-16T10:25:12.979Z,9.14
2023-04-16T10:26:13.317Z,8.91
2023-04-16T10:27:13.019Z,9.14
2023-04-16T10:28:13.839Z,9.47
2023-04-16T10:29:13.018Z,9.7
2023-04-16T10:30:14.979Z,9.42
2023-04-16T10:31:13.189Z,9.44
2023-04-16T10:32:13.916Z,9.4
2023-04-16T10:33:14.465Z,9.42
2023-04-16T10:34:13.300Z,9.4
2023-04-16T10:35:19.120Z,9.51
2023-04-16T10:37:17.368Z,9.34
2023-04-16T10:39:20.040Z,9.71
2023-04-16T10:40:25.526Z,9.43
2023-04-16T10:41:22.332Z,9.38
2023-04-16T10:42:21.840Z,9.43
2023-04-16T10:43:21.782Z,9.35
2023-04-16T10:44:24.607Z,9.23
2023-04-16T10:45:26.333Z,9.15
2023-04-16T10:46:26.553Z,9.24
2023-04-16T10:47:25.372Z,9.54
2023-04-16T10:48:29.017Z,9.52
2023-04-16T10:49:24.782Z,9.67
2023-04-16T10:50:24.418Z,9.73
2023-04-16T10:51:28.438Z,9.93
2023-04-16T10:52:24.647Z,9.94
2023-04-16T10:53:25.554Z,10.06
2023-04-16T10:54:28.857Z,9.75
2023-04-16T10:55:25.097Z,9.56
2023-04-16T10:56:25.936Z,9.81
2023-04-16T10:57:29.342Z,9.8
2023-04-16T10:58:32.237Z,9.53
2023-04-16T10:59:31.934Z,9.14
2023-04-16T11:00:28.525Z,9.54
2023-04-16T11:01:35.417Z,9.92
2023-04-16T11:02:31.841Z,10.18
2023-04-16T11:03:31.907Z,10.14
2023-04-16T11:04:35.862Z,9.94
2023-04-16T11:06:37.156Z,9.35
2023-04-16T11:07:36.075Z,9.22
2023-04-16T11:08:44.278Z,9.21
2023-04-16T11:10:40.337Z,9.29
2023-04-16T11:11:40.369Z,9.47
2023-04-16T11:12:41.867Z,9.26
2023-04-16T11:13:43.595Z,9.39
2023-04-16T11:14:40.573Z,9.56
2023-04-16T11:15:40.434Z,9.99
2023-04-16T11:16:40.455Z,9.75
2023-04-16T11:17:44.869Z,9.98
2023-04-16T11:18:43.635Z,10.26
2023-04-16T11:19:43.373Z,9.93
2023-04-16T11:20:43.068Z,9.93
2023-04-16T11:21:44.592Z,9.95
2023-04-16T11:22:43.163Z,9.68
2023-04-16T11:23:46.798Z,9.62
2023-04-16T11:25:44.964Z,9.31
2023-04-16T11:26:44.545Z,9.4
2023-04-16T11:27:44.527Z,9.2
2023-04-16T11:28:44.568Z,9
2023-04-16T11:29:46.991Z,9.04
2023-04-16T11:30:44.699Z,9.2
2023-04-16T11:31:54.069Z,9.26
2023-04-16T11:32:45.502Z,9.09
2023-04-16T11:33:45.430Z,9.3
2023-04-16T11:34:45.956Z,9.39
2023-04-16T11:36:47.885Z,9.05
2023-04-16T11:37:47.116Z,9.04
2023-04-16T11:38:47.183Z,9.32
2023-04-16T11:39:56.041Z,9.22
2023-04-16T11:40:49.334Z,9.21
2023-04-16T11:41:48.896Z,9.27
2023-04-16T11:42:47.264Z,9.26
2023-04-16T11:43:47.345Z,9.15
2023-04-16T11:44:51.046Z,8.92
2023-04-16T11:46:50.316Z,9.04
2023-04-16T11:47:50.437Z,9.18
2023-04-16T11:48:50.120Z,9.14
2023-04-16T11:49:49.836Z,9.18
2023-04-16T11:50:58.320Z,9.15
2023-04-16T11:51:49.536Z,9.52
2023-04-16T11:52:50.630Z,9.51
2023-04-16T11:53:53.649Z,9.44
2023-04-16T11:54:50.262Z,9.32
2023-04-16T11:55:49.896Z,9.13
2023-04-16T11:56:50.575Z,9.19
2023-04-16T11:57:51.328Z,9.05
2023-04-16T12:00:01.404Z,9.34
2023-04-16T12:00:54.985Z,9.5
2023-04-16T12:01:55.524Z,9.41
2023-04-16T12:02:55.449Z,9.34
2023-04-16T12:04:01.189Z,9.45
2023-04-16T12:04:58.375Z,9.68
2023-04-16T12:06:06.924Z,9.74
2023-04-16T12:07:11.232Z,9.53
2023-04-16T12:08:04.038Z,9.59
2023-04-16T12:10:07.118Z,9.76
2023-04-16T12:11:03.361Z,9.84
2023-04-16T12:12:04.032Z,9.9
2023-04-16T12:14:11.894Z,9.79
2023-04-16T12:15:08.589Z,9.87
2023-04-16T12:17:16.615Z,9.26
2023-04-16T12:18:12.951Z,9.23
2023-04-16T12:19:13.445Z,9.48
2023-04-16T12:20:14.191Z,9.43
2023-04-16T12:21:12.882Z,9.51
2023-04-16T12:22:13.131Z,9.65
2023-04-16T12:23:22.611Z,9.51
2023-04-16T12:24:15.132Z,9.68
2023-04-16T12:25:15.356Z,9.42
2023-04-16T12:26:13.861Z,9.33
2023-04-16T12:27:14.044Z,9.35
2023-04-16T12:28:13.921Z,9.28
2023-04-16T12:29:17.986Z,9.47
2023-04-16T12:30:15.246Z,9.4
2023-04-16T12:31:14.306Z,9.44
2023-04-16T12:32:23.057Z,9.18
2023-04-16T12:33:18.157Z,9
2023-04-16T12:34:15.163Z,9.05
2023-04-16T12:36:18.898Z,9.15
2023-04-16T12:37:15.606Z,9.24
2023-04-16T12:38:15.643Z,9.41
2023-04-16T12:39:15.950Z,9.38
2023-04-16T12:40:15.687Z,9.51
2023-04-16T12:41:15.668Z,9.38
2023-04-16T12:42:15.718Z,9.43
2023-04-16T12:43:15.727Z,9.42
2023-04-16T12:44:16.379Z,9.65
2023-04-16T12:45:15.690Z,9.69
2023-04-16T12:46:15.852Z,9.43
2023-04-16T12:47:15.770Z,9.44
2023-04-16T12:48:15.821Z,9.61
2023-04-16T12:49:15.783Z,9.54
2023-04-16T12:50:15.879Z,9.34
2023-04-16T12:51:15.925Z,9.52
2023-04-16T12:52:15.884Z,9.31
2023-04-16T12:53:15.933Z,9.35
2023-04-16T12:54:15.859Z,9.4
2023-04-16T12:55:15.918Z,9.34
2023-04-16T12:56:16.118Z,9.28
2023-04-16T12:57:15.929Z,9.4
2023-04-16T12:58:15.918Z,9.48
2023-04-16T12:59:16.000Z,9.42
2023-04-16T13:00:16.351Z,9.42
2023-04-16T13:01:16.089Z,9.37
2023-04-16T13:02:16.193Z,9.36
2023-04-16T13:03:16.213Z,9.37
2023-04-16T13:04:16.709Z,9.16
2023-04-16T13:05:16.078Z,9.04
2023-04-16T13:06:16.832Z,9.12
2023-04-16T13:07:16.244Z,9.2
2023-04-16T13:08:16.091Z,9.11
2023-04-16T13:09:16.089Z,9.09
2023-04-16T13:10:16.150Z,9.15
2023-04-16T13:11:16.183Z,9.29
2023-04-16T13:12:16.208Z,9.07
2023-04-16T13:13:16.351Z,9.09
2023-04-16T13:14:16.234Z,9.2
2023-04-16T13:15:16.265Z,9.15
2023-04-16T13:16:16.244Z,9.14
2023-04-16T13:17:16.278Z,9.15
2023-04-16T13:18:16.243Z,9.1
2023-04-16T13:19:16.286Z,9.23
2023-04-16T13:20:16.375Z,9
2023-04-16T13:21:16.302Z,8.94
2023-04-16T13:22:16.576Z,8.91
2023-04-16T13:23:16.339Z,8.97
2023-04-16T13:24:16.450Z,9.08
2023-04-16T13:25:16.456Z,9.01
2023-04-16T13:26:16.421Z,8.85
2023-04-16T13:27:16.447Z,8.95
2023-04-16T13:28:16.520Z,8.86
2023-04-16T13:29:16.379Z,8.83
2023-04-16T13:30:16.577Z,8.7
2023-04-16T13:31:16.590Z,8.66
2023-04-16T13:32:16.680Z,8.68
2023-04-16T13:33:16.536Z,8.72
2023-04-16T13:34:16.569Z,8.8
2023-04-16T13:35:16.625Z,8.84
2023-04-16T13:36:16.592Z,8.81
2023-04-16T13:37:16.757Z,8.77
2023-04-16T13:38:16.963Z,8.81
2023-04-16T13:39:16.625Z,8.83
2023-04-16T13:40:16.817Z,8.81
2023-04-16T13:41:17.048Z,8.86
2023-04-16T13:42:16.664Z,8.76
2023-04-16T13:43:16.723Z,8.76